createdAt,value
2022-10-03T00:00:24.266Z,3.80
2022-10-03T00:01:19.691Z,4.07
2022-10-03T00:02:05.128Z,4.40
2022-10-03T00:02:31.055Z,4.10
2022-10-03T00:03:14.134Z,4.45
2022-10-03T00:04:07.555Z,4.22
2022-10-03T00:04:40.937Z,3.90
2022-10-03T00:05:30.047Z,4.25
2022-10-03T00:05:55.128Z,4.05
2022-10-03T00:06:37.411Z,4.20
2022-10-03T00:07:52.814Z,3.83
2022-10-03T00:08:35.215Z,4.40
2022-10-03T00:09:13.684Z,3.95
2022-10-03T00:10:01.904Z,3.90
2022-10-03T00:10:26.528Z,4.03
2022-10-03T00:10:55.812Z,3.80
2022-10-03T00:11:46.458Z,3.90
2022-10-03T00:12:36.952Z,3.80
2022-10-03T00:13:05.872Z,4.10
2022-10-03T00:13:47.914Z,4.13
2022-10-03T00:14:21.505Z,3.80
2022-10-03T00:14:49.216Z,4.00
2022-10-03T00:15:40.149Z,3.60
2022-10-03T00:16:10.490Z,3.60
2022-10-03T00:16:56.270Z,3.80
2022-10-03T00:17:39.194Z,3.88
2022-10-03T00:18:37.292Z,3.80
2022-10-03T00:19:22.226Z,3.92
2022-10-03T00:19:58.947Z,3.72
2022-10-03T00:20:55.450Z,3.40
2022-10-03T00:21:25.892Z,3.65
2022-10-03T00:22:23.730Z,3.42
2022-10-03T00:23:07.787Z,3.60
2022-10-03T00:23:58.508Z,3.30
2022-10-03T00:24:50.494Z,3.58
2022-10-03T00:25:59.967Z,3.30
2022-10-03T00:26:47.941Z,3.60
2022-10-03T00:27:36.109Z,3.53
2022-10-03T00:28:37.252Z,3.65
2022-10-03T00:29:01.944Z,3.55
2022-10-03T00:29:36.420Z,3.90
2022-10-03T00:30:22.913Z,3.75
2022-10-03T00:30:57.320Z,3.58
2022-10-03T00:31:25.688Z,3.60
2022-10-03T00:32:18.968Z,3.67
2022-10-03T00:33:08.792Z,3.60
2022-10-03T00:33:46.397Z,3.45
2022-10-03T00:34:30.835Z,3.58
2022-10-03T00:35:13.900Z,3.60
2022-10-03T00:35:44.757Z,3.50
2022-10-03T00:36:15.120Z,3.53
2022-10-03T00:37:00.969Z,3.60
2022-10-03T00:37:40.191Z,3.70
2022-10-03T00:38:24.704Z,3.60
2022-10-03T00:39:15.182Z,3.50
2022-10-03T00:40:01.094Z,3.85
2022-10-03T00:41:00.299Z,3.40
2022-10-03T00:41:24.883Z,3.78
2022-10-03T00:42:01.461Z,3.65
2022-10-03T00:42:57.833Z,3.80
2022-10-03T00:43:52.164Z,3.80
2022-10-03T00:44:28.912Z,3.67
2022-10-03T00:45:31.471Z,4.03
2022-10-03T00:46:40.216Z,3.85
2022-10-03T00:47:27.987Z,3.53
2022-10-03T00:47:52.821Z,3.80
2022-10-03T00:48:52.327Z,3.80
2022-10-03T00:49:20.131Z,3.35
2022-10-03T00:50:35.858Z,3.45
2022-10-03T00:51:07.730Z,3.55
2022-10-03T00:51:50.116Z,3.60
2022-10-03T00:52:39.515Z,3.72
2022-10-03T00:53:30.404Z,3.40
2022-10-03T00:54:40.164Z,3.20
2022-10-03T00:55:22.823Z,3.40
2022-10-03T00:56:31.884Z,3.40
2022-10-03T00:57:17.353Z,3.25
2022-10-03T00:58:06.052Z,3.42
2022-10-03T00:58:27.724Z,3.42
2022-10-03T00:58:58.459Z,3.33
2022-10-03T00:59:32.431Z,3.08
2022-10-03T01:00:08.316Z,3.20
2022-10-03T01:00:32.368Z,3.50
2022-10-03T01:01:05.827Z,3.25
2022-10-03T01:01:37.715Z,3.25
2022-10-03T01:02:21.425Z,3.20
2022-10-03T01:02:51.919Z,3.38
2022-10-03T01:03:31.231Z,3.03
2022-10-03T01:04:07.735Z,3.28
2022-10-03T01:04:53.345Z,3.33
2022-10-03T01:05:30.274Z,3.00
2022-10-03T01:06:09.198Z,2.92
2022-10-03T01:06:57.880Z,2.90
2022-10-03T01:07:56.407Z,3.13
2022-10-03T01:08:30.123Z,2.90
2022-10-03T01:09:10.046Z,3.35
2022-10-03T01:09:46.605Z,3.13
2022-10-03T01:10:14.099Z,3.05
2022-10-03T01:11:08.813Z,3.30
2022-10-03T01:11:47.227Z,3.30
2022-10-03T01:12:39.156Z,2.95
2022-10-03T01:13:26.636Z,3.00
2022-10-03T01:13:57.375Z,3.00
2022-10-03T01:14:49.353Z,3.17
2022-10-03T01:15:19.121Z,2.80
2022-10-03T01:16:17.684Z,3.03
2022-10-03T01:16:56.528Z,3.05
2022-10-03T01:17:50.196Z,3.17
2022-10-03T01:18:26.418Z,3.10
2022-10-03T01:19:23.602Z,3.20
2022-10-03T01:20:06.442Z,3.10
2022-10-03T01:20:39.750Z,2.90
2022-10-03T01:21:01.477Z,2.72
2022-10-03T01:21:48.841Z,2.53
2022-10-03T01:22:38.080Z,2.70
2022-10-03T01:23:02.634Z,3.05
2022-10-03T01:23:43.349Z,2.70
2022-10-03T01:24:37.935Z,2.90
2022-10-03T01:25:16.338Z,2.72
2022-10-03T01:25:52.806Z,2.85
2022-10-03T01:26:20.618Z,2.60
2022-10-03T01:26:45.427Z,2.95
2022-10-03T01:27:11.307Z,3.10
2022-10-03T01:28:19.967Z,3.03
2022-10-03T01:29:29.804Z,2.75
2022-10-03T01:30:17.542Z,3.00
2022-10-03T01:30:47.523Z,2.90
2022-10-03T01:31:13.930Z,2.60
2022-10-03T01:31:57.177Z,2.90
2022-10-03T01:32:48.780Z,3.22
2022-10-03T01:33:17.380Z,2.90
2022-10-03T01:34:06.438Z,3.10
2022-10-03T01:34:38.217Z,2.67
2022-10-03T01:35:02.681Z,3.10
2022-10-03T01:35:43.049Z,3.00
2022-10-03T01:36:26.265Z,2.63
2022-10-03T01:36:54.819Z,3.00
2022-10-03T01:37:21.047Z,3.10
2022-10-03T01:37:53.560Z,3.40
2022-10-03T01:38:17.190Z,3.58
2022-10-03T01:38:56.967Z,3.22
2022-10-03T01:39:43.203Z,3.10
2022-10-03T01:40:25.964Z,2.97
2022-10-03T01:40:58.566Z,2.90
2022-10-03T01:41:41.972Z,2.90
2022-10-03T01:42:20.734Z,3.10
2022-10-03T01:43:11.946Z,3.22
2022-10-03T01:43:58.726Z,3.03
2022-10-03T01:44:53.587Z,3.45
2022-10-03T01:45:31.181Z,2.75
2022-10-03T01:45:59.496Z,2.92
2022-10-03T01:46:38.473Z,2.83
2022-10-03T01:47:47.865Z,2.80
2022-10-03T01:48:18.581Z,2.78
2022-10-03T01:48:58.242Z,3.03
2022-10-03T01:49:39.025Z,2.95
2022-10-03T01:50:16.075Z,2.75
2022-10-03T01:51:08.274Z,2.78
2022-10-03T01:51:56.616Z,2.80
2022-10-03T01:52:33.178Z,2.88
2022-10-03T01:53:32.033Z,2.83
2022-10-03T01:54:12.735Z,2.90
2022-10-03T01:54:43.770Z,2.88
2022-10-03T01:55:36.519Z,2.92
2022-10-03T01:56:20.128Z,2.83
2022-10-03T01:56:48.050Z,2.63
2022-10-03T01:57:35.275Z,3.00
2022-10-03T01:58:09.887Z,3.00
2022-10-03T01:58:37.414Z,2.90
2022-10-03T01:59:09.997Z,3.13
2022-10-03T01:59:31.655Z,3.03
2022-10-03T02:00:07.486Z,3.33
2022-10-03T02:01:09.059Z,3.42
2022-10-03T02:01:51.927Z,3.13
2022-10-03T02:02:32.090Z,3.00
2022-10-03T02:03:20.996Z,2.90
2022-10-03T02:03:53.322Z,3.10
2022-10-03T02:04:18.027Z,2.85
2022-10-03T02:04:47.885Z,2.80
2022-10-03T02:05:22.833Z,2.70
2022-10-03T02:06:03.384Z,2.92
2022-10-03T02:06:41.443Z,3.00
2022-10-03T02:07:22.120Z,3.13
2022-10-03T02:08:19.540Z,2.70
2022-10-03T02:08:51.983Z,3.10
2022-10-03T02:09:29.862Z,2.80
2022-10-03T02:10:07.374Z,2.97
2022-10-03T02:10:37.664Z,3.10
2022-10-03T02:11:11.255Z,3.00
2022-10-03T02:11:42.626Z,2.90
2022-10-03T02:12:17.263Z,2.92
2022-10-03T02:12:50.394Z,2.90
2022-10-03T02:13:19.033Z,2.88
2022-10-03T02:14:17.492Z,3.17
2022-10-03T02:14:57.140Z,3.08
2022-10-03T02:15:31.535Z,3.00
2022-10-03T02:16:37.319Z,3.03
2022-10-03T02:17:20.176Z,2.90
2022-10-03T02:18:02.503Z,3.13
2022-10-03T02:18:48.793Z,3.00
2022-10-03T02:19:21.649Z,3.03
2022-10-03T02:20:13.902Z,3.13
2022-10-03T02:20:41.459Z,3.13
2022-10-03T02:21:10.509Z,3.20
2022-10-03T02:21:34.030Z,3.30
2022-10-03T02:21:58.659Z,2.83
2022-10-03T02:22:42.673Z,3.20
2022-10-03T02:23:34.085Z,3.17
2022-10-03T02:24:19.660Z,2.45
2022-10-03T02:24:45.296Z,2.80
2022-10-03T02:25:26.582Z,2.95
2022-10-03T02:26:19.650Z,2.85
2022-10-03T02:27:18.724Z,2.90
2022-10-03T02:27:52.530Z,3.00
2022-10-03T02:28:46.625Z,3.13
2022-10-03T02:29:29.701Z,3.28
2022-10-03T02:29:56.918Z,3.10
2022-10-03T02:30:20.692Z,3.10
2022-10-03T02:31:16.416Z,3.15
2022-10-03T02:32:28.568Z,3.00
2022-10-03T02:33:15.736Z,3.28
2022-10-03T02:33:49.597Z,3.33
2022-10-03T02:34:37.160Z,3.28
2022-10-03T02:35:23.327Z,3.35
2022-10-03T02:36:03.886Z,3.10
2022-10-03T02:37:07.261Z,2.80
2022-10-03T02:37:53.072Z,3.08
2022-10-03T02:38:29.883Z,3.30
2022-10-03T02:39:09.733Z,3.40
2022-10-03T02:39:46.629Z,3.22
2022-10-03T02:40:17.522Z,3.15
2022-10-03T02:40:57.759Z,3.20
2022-10-03T02:41:34.303Z,3.10
2022-10-03T02:42:14.988Z,3.15
2022-10-03T02:43:04.903Z,3.30
2022-10-03T02:43:48.181Z,3.10
2022-10-03T02:44:31.070Z,3.40
2022-10-03T02:45:13.951Z,3.28
2022-10-03T02:46:03.465Z,3.20
2022-10-03T02:46:40.297Z,3.33
2022-10-03T02:47:23.399Z,3.30
2022-10-03T02:48:31.630Z,3.45
2022-10-03T02:49:24.020Z,3.42
2022-10-03T02:49:58.207Z,3.50
2022-10-03T02:50:52.713Z,3.30
2022-10-03T02:51:33.453Z,3.05
2022-10-03T02:52:27.588Z,3.28
2022-10-03T02:53:21.130Z,3.17
2022-10-03T02:54:03.750Z,3.13
2022-10-03T02:54:58.762Z,3.08
2022-10-03T02:55:51.275Z,3.28
2022-10-03T02:56:31.558Z,3.03
2022-10-03T02:57:30.238Z,3.10
2022-10-03T02:58:03.961Z,3.17
2022-10-03T02:59:19.432Z,2.92
2022-10-03T03:00:02.920Z,3.42
2022-10-03T03:01:07.626Z,3.47
2022-10-03T03:01:56.733Z,3.17
2022-10-03T03:02:55.846Z,3.13
2022-10-03T03:03:58.592Z,2.78
2022-10-03T03:04:56.970Z,3.22
2022-10-03T03:05:41.926Z,3.20
2022-10-03T03:06:24.434Z,3.13
2022-10-03T03:07:00.618Z,3.08
2022-10-03T03:07:22.290Z,3.42
2022-10-03T03:08:02.529Z,3.22
2022-10-03T03:08:47.942Z,3.05
2022-10-03T03:09:30.576Z,3.13
2022-10-03T03:10:19.708Z,3.10
2022-10-03T03:11:02.359Z,3.50
2022-10-03T03:11:39.377Z,2.97
2022-10-03T03:12:12.679Z,3.28
2022-10-03T03:13:07.864Z,3.30
2022-10-03T03:13:59.201Z,3.28
2022-10-03T03:14:57.238Z,3.30
2022-10-03T03:15:56.109Z,3.50
2022-10-03T03:16:38.912Z,3.22
2022-10-03T03:17:19.411Z,3.10
2022-10-03T03:18:11.277Z,3.10
2022-10-03T03:18:48.157Z,3.38
2022-10-03T03:19:16.661Z,2.92
2022-10-03T03:20:12.172Z,2.97
2022-10-03T03:21:00.057Z,3.17
2022-10-03T03:21:33.552Z,3.28
2022-10-03T03:22:13.594Z,3.13
2022-10-03T03:22:41.247Z,3.60
2022-10-03T03:23:35.286Z,3.20
2022-10-03T03:24:28.913Z,3.42
2022-10-03T03:25:09.012Z,2.92
2022-10-03T03:25:33.674Z,3.17
2022-10-03T03:26:06.048Z,3.40
2022-10-03T03:26:36.656Z,3.70
2022-10-03T03:27:33.628Z,3.25
2022-10-03T03:28:16.379Z,3.22
2022-10-03T03:29:00.559Z,3.50
2022-10-03T03:29:31.060Z,3.20
2022-10-03T03:30:15.661Z,3.22
2022-10-03T03:30:48.043Z,3.08
2022-10-03T03:31:18.938Z,3.42
2022-10-03T03:32:04.244Z,3.47
2022-10-03T03:32:45.417Z,4.10
2022-10-03T03:33:32.768Z,3.50
2022-10-03T03:34:00.429Z,3.30
2022-10-03T03:35:04.230Z,3.38
2022-10-03T03:35:46.685Z,2.85
2022-10-03T03:36:36.690Z,3.35
2022-10-03T03:37:19.846Z,3.20
2022-10-03T03:38:15.598Z,3.47
2022-10-03T03:39:01.895Z,3.42
2022-10-03T03:39:55.156Z,3.53
2022-10-03T03:40:38.294Z,3.58
2022-10-03T03:41:41.390Z,3.55
2022-10-03T03:42:09.281Z,3.30
2022-10-03T03:42:49.522Z,3.50
2022-10-03T03:43:29.812Z,3.50
2022-10-03T03:44:29.678Z,3.50
2022-10-03T03:45:21.360Z,3.05
2022-10-03T03:45:56.344Z,3.25
2022-10-03T03:46:49.398Z,3.28
2022-10-03T03:47:50.513Z,3.40
2022-10-03T03:48:39.844Z,3.10
2022-10-03T03:49:46.066Z,3.33
2022-10-03T03:50:52.899Z,2.85
2022-10-03T03:51:38.931Z,3.17
2022-10-03T03:52:21.818Z,3.03
2022-10-03T03:53:18.227Z,3.05
2022-10-03T03:53:50.522Z,3.22
2022-10-03T03:54:24.683Z,2.85
2022-10-03T03:54:53.469Z,3.20
2022-10-03T03:56:03.396Z,3.05
2022-10-03T03:57:01.355Z,3.00
2022-10-03T03:57:49.836Z,3.08
2022-10-03T03:58:17.586Z,2.83
2022-10-03T03:59:02.574Z,2.80
2022-10-03T03:59:48.373Z,2.78
2022-10-03T04:00:57.499Z,2.75
2022-10-03T04:01:37.818Z,3.20
2022-10-03T04:02:14.970Z,3.00
2022-10-03T04:02:56.045Z,3.08
2022-10-03T04:03:18.839Z,2.78
2022-10-03T04:04:17.886Z,2.92
2022-10-03T04:05:00.963Z,2.70
2022-10-03T04:05:43.941Z,3.03
2022-10-03T04:06:20.416Z,3.03
2022-10-03T04:07:15.468Z,2.72
2022-10-03T04:08:01.822Z,2.90
2022-10-03T04:08:44.690Z,2.97
2022-10-03T04:09:24.763Z,2.80
2022-10-03T04:09:55.288Z,2.83
2022-10-03T04:10:38.386Z,2.40
2022-10-03T04:11:30.827Z,2.80
2022-10-03T04:12:20.885Z,2.53
2022-10-03T04:12:48.814Z,2.80
2022-10-03T04:13:20.066Z,2.78
2022-10-03T04:13:56.482Z,2.80
2022-10-03T04:14:29.897Z,2.88
2022-10-03T04:15:24.241Z,2.80
2022-10-03T04:15:59.657Z,2.85
2022-10-03T04:16:41.648Z,3.00
2022-10-03T04:17:52.700Z,3.15
2022-10-03T04:18:44.915Z,2.97
2022-10-03T04:19:44.576Z,2.70
2022-10-03T04:20:32.655Z,2.78
2022-10-03T04:21:07.820Z,2.90
2022-10-03T04:21:38.281Z,2.97
2022-10-03T04:22:28.190Z,2.92
2022-10-03T04:23:11.253Z,2.80
2022-10-03T04:24:02.645Z,3.00
2022-10-03T04:24:44.101Z,3.17
2022-10-03T04:25:17.905Z,2.92
2022-10-03T04:26:15.928Z,2.97
2022-10-03T04:26:49.220Z,3.25
2022-10-03T04:27:21.043Z,2.97
2022-10-03T04:28:26.689Z,2.80
2022-10-03T04:29:17.171Z,2.95
2022-10-03T04:30:06.520Z,2.95
2022-10-03T04:31:01.350Z,2.80
2022-10-03T04:31:45.076Z,3.00
2022-10-03T04:32:28.325Z,2.80
2022-10-03T04:32:59.049Z,2.90
2022-10-03T04:33:52.408Z,2.80
2022-10-03T04:34:42.624Z,2.88
2022-10-03T04:35:38.421Z,2.92
2022-10-03T04:36:12.357Z,3.13
2022-10-03T04:36:34.162Z,2.95
2022-10-03T04:37:28.250Z,3.13
2022-10-03T04:38:32.603Z,3.30
2022-10-03T04:39:22.253Z,2.80
2022-10-03T04:39:57.110Z,2.85
2022-10-03T04:40:27.918Z,2.80
2022-10-03T04:40:52.620Z,3.00
2022-10-03T04:41:27.752Z,2.75
2022-10-03T04:42:15.556Z,2.90
2022-10-03T04:43:01.703Z,2.85
2022-10-03T04:43:29.950Z,3.05
2022-10-03T04:44:27.148Z,2.90
2022-10-03T04:45:17.404Z,2.92
2022-10-03T04:46:18.792Z,2.90
2022-10-03T04:46:53.009Z,2.63
2022-10-03T04:47:28.954Z,2.85
2022-10-03T04:47:59.589Z,2.53
2022-10-03T04:48:36.376Z,2.72
2022-10-03T04:49:15.965Z,2.60
2022-10-03T04:49:59.253Z,2.72
2022-10-03T04:50:45.903Z,2.83
2022-10-03T04:51:13.686Z,2.75
2022-10-03T04:51:54.714Z,2.72
2022-10-03T04:52:43.081Z,2.60
2022-10-03T04:53:36.153Z,2.72
2022-10-03T04:54:03.269Z,2.70
2022-10-03T04:54:48.383Z,2.47
2022-10-03T04:55:20.845Z,2.65
2022-10-03T04:55:56.788Z,2.55
2022-10-03T04:56:40.726Z,2.45
2022-10-03T04:57:19.192Z,2.45
2022-10-03T04:57:58.086Z,2.45
2022-10-03T04:58:45.356Z,2.35
2022-10-03T04:59:12.647Z,2.58
2022-10-03T04:59:50.271Z,2.53
2022-10-03T05:00:48.173Z,2.40
2022-10-03T05:01:34.078Z,2.75
2022-10-03T05:02:21.611Z,2.35
2022-10-03T05:02:52.527Z,2.90
2022-10-03T05:03:22.997Z,2.63
2022-10-03T05:04:05.030Z,2.50
2022-10-03T05:04:44.309Z,2.78
2022-10-03T05:05:28.312Z,2.50
2022-10-03T05:06:06.301Z,2.65
2022-10-03T05:06:52.475Z,2.28
2022-10-03T05:07:21.085Z,2.78
2022-10-03T05:08:05.398Z,2.55
2022-10-03T05:08:59.598Z,2.40
2022-10-03T05:09:39.081Z,2.30
2022-10-03T05:10:17.053Z,2.33
2022-10-03T05:11:08.144Z,2.47
2022-10-03T05:11:59.981Z,2.50
2022-10-03T05:12:58.718Z,2.60
2022-10-03T05:13:49.699Z,2.72
2022-10-03T05:14:28.332Z,2.42
2022-10-03T05:15:11.037Z,2.78
2022-10-03T05:15:44.557Z,2.47
2022-10-03T05:16:23.893Z,2.58
2022-10-03T05:17:20.640Z,2.25
2022-10-03T05:18:04.794Z,2.50
2022-10-03T05:18:50.410Z,2.35
2022-10-03T05:19:40.846Z,2.10
2022-10-03T05:20:41.000Z,2.03
2022-10-03T05:21:24.344Z,2.50
2022-10-03T05:22:06.276Z,2.20
2022-10-03T05:22:43.068Z,2.03
2022-10-03T05:23:21.086Z,2.20
2022-10-03T05:24:15.506Z,2.10
2022-10-03T05:25:14.546Z,2.38
2022-10-03T05:26:43.458Z,2.40
2022-10-03T05:27:15.244Z,2.22
2022-10-03T05:27:45.358Z,2.03
2022-10-03T05:28:30.972Z,2.22
2022-10-03T05:29:07.185Z,1.75
2022-10-03T05:29:45.290Z,1.90
2022-10-03T05:30:16.375Z,2.08
2022-10-03T05:30:44.955Z,1.90
2022-10-03T05:31:07.579Z,2.05
2022-10-03T05:31:58.448Z,2.03
2022-10-03T05:32:26.312Z,1.98
2022-10-03T05:33:01.227Z,2.00
2022-10-03T05:33:48.228Z,1.92
2022-10-03T05:34:52.518Z,2.10
2022-10-03T05:35:47.994Z,2.13
2022-10-03T05:36:49.312Z,1.80
2022-10-03T05:37:47.186Z,1.90
2022-10-03T05:38:29.661Z,2.00
2022-10-03T05:39:25.473Z,2.15
2022-10-03T05:40:22.254Z,2.10
2022-10-03T05:40:48.782Z,2.20
2022-10-03T05:41:36.337Z,1.85
2022-10-03T05:42:39.306Z,1.83
2022-10-03T05:43:23.780Z,2.08
2022-10-03T05:43:58.524Z,1.90
2022-10-03T05:44:29.569Z,2.15
2022-10-03T05:45:09.170Z,2.17
2022-10-03T05:45:45.747Z,1.80
2022-10-03T05:46:21.213Z,2.17
2022-10-03T05:47:06.888Z,1.83
2022-10-03T05:47:45.711Z,2.08
2022-10-03T05:48:33.227Z,2.03
2022-10-03T05:49:25.545Z,2.00
2022-10-03T05:50:18.132Z,2.10
2022-10-03T05:50:47.713Z,2.17
2022-10-03T05:51:44.248Z,2.22
2022-10-03T05:52:26.254Z,1.80
2022-10-03T05:53:11.092Z,1.88
2022-10-03T05:53:50.785Z,1.83
2022-10-03T05:54:50.156Z,1.70
2022-10-03T05:55:18.657Z,2.25
2022-10-03T05:56:01.802Z,2.28
2022-10-03T05:56:51.171Z,2.20
2022-10-03T05:57:24.469Z,1.80
2022-10-03T05:58:30.220Z,1.92
2022-10-03T05:58:52.098Z,1.63
2022-10-03T06:00:06.539Z,1.70
2022-10-03T06:01:00.979Z,1.83
2022-10-03T06:02:06.340Z,1.90
2022-10-03T06:02:49.748Z,2.22
2022-10-03T06:03:35.864Z,1.85
2022-10-03T06:04:11.483Z,1.88
2022-10-03T06:04:57.109Z,1.92
2022-10-03T06:06:33.825Z,1.75
2022-10-03T06:07:30.566Z,1.80
2022-10-03T06:08:24.217Z,2.20
2022-10-03T06:08:57.710Z,1.98
2022-10-03T06:10:11.277Z,1.70
2022-10-03T06:11:12.401Z,1.95
2022-10-03T06:12:01.300Z,1.90
2022-10-03T06:12:42.767Z,1.95
2022-10-03T06:13:26.899Z,2.00
2022-10-03T06:14:13.084Z,2.05
2022-10-03T06:15:09.843Z,1.98
2022-10-03T06:15:57.944Z,1.90
2022-10-03T06:16:25.245Z,2.10
2022-10-03T06:17:09.341Z,2.10
2022-10-03T06:18:04.920Z,2.10
2022-10-03T06:19:26.908Z,1.80
2022-10-03T06:21:49.210Z,1.98
2022-10-03T06:23:07.369Z,1.90
2022-10-03T06:23:47.960Z,2.00
2022-10-03T06:24:18.743Z,1.90
2022-10-03T06:24:59.630Z,2.03
2022-10-03T06:25:42.927Z,2.00
2022-10-03T06:26:48.010Z,2.10
2022-10-03T06:27:37.573Z,2.10
2022-10-03T06:28:18.357Z,1.92
2022-10-03T06:29:06.905Z,2.00
2022-10-03T06:29:56.665Z,2.22
2022-10-03T06:30:42.626Z,2.08
2022-10-03T06:31:22.049Z,2.33
2022-10-03T06:32:05.109Z,2.08
2022-10-03T06:33:00.523Z,2.10
2022-10-03T06:34:15.851Z,2.45
2022-10-03T06:34:56.011Z,2.72
2022-10-03T06:35:54.992Z,2.50
2022-10-03T06:36:55.459Z,2.40
2022-10-03T06:37:38.986Z,2.40
2022-10-03T06:38:09.472Z,2.63
2022-10-03T06:38:49.229Z,2.47
2022-10-03T06:39:13.703Z,2.30
2022-10-03T06:39:55.405Z,2.22
2022-10-03T06:40:31.649Z,2.35
2022-10-03T06:41:42.972Z,2.10
2022-10-03T06:42:46.589Z,1.88
2022-10-03T06:43:32.051Z,2.03
2022-10-03T06:44:18.063Z,1.95
2022-10-03T06:44:55.169Z,1.90
2022-10-03T06:45:39.956Z,1.80
2022-10-03T06:46:26.100Z,1.92
2022-10-03T06:47:24.124Z,2.22
2022-10-03T06:47:47.718Z,2.60
2022-10-03T06:48:33.436Z,2.33
2022-10-03T06:49:21.896Z,2.28
2022-10-03T06:49:57.291Z,1.95
2022-10-03T06:50:40.721Z,2.38
2022-10-03T06:51:40.409Z,2.10
2022-10-03T06:52:19.092Z,1.60
2022-10-03T06:53:15.413Z,1.90
2022-10-03T06:53:57.802Z,1.80
2022-10-03T06:54:30.986Z,1.67
2022-10-03T06:55:28.038Z,2.10
2022-10-03T06:56:31.727Z,2.70
2022-10-03T06:57:17.743Z,2.35
2022-10-03T06:58:06.113Z,2.30
2022-10-03T06:58:30.643Z,2.63
2022-10-03T06:59:06.462Z,2.38
2022-10-03T07:00:10.002Z,1.83
2022-10-03T07:00:50.320Z,1.70
2022-10-03T07:01:12.051Z,1.77
2022-10-03T07:01:54.344Z,1.80
2022-10-03T07:02:21.827Z,2.70
2022-10-03T07:02:49.043Z,3.05
2022-10-03T07:03:42.842Z,4.85
2022-10-03T07:04:32.279Z,7.07
2022-10-03T07:05:02.963Z,10.88
2022-10-03T07:05:52.126Z,12.55
2022-10-03T07:06:16.663Z,8.98
2022-10-03T07:07:08.818Z,6.90
2022-10-03T07:08:00.336Z,3.45
2022-10-03T07:08:27.879Z,2.08
2022-10-03T07:09:26.656Z,2.20
2022-10-03T07:10:18.850Z,1.90
2022-10-03T07:10:44.164Z,1.70
2022-10-03T07:11:37.005Z,1.80
2022-10-03T07:12:26.701Z,2.10
2022-10-03T07:13:15.375Z,1.90
2022-10-03T07:14:16.128Z,1.77
2022-10-03T07:15:17.150Z,1.70
2022-10-03T07:16:05.085Z,1.50
2022-10-03T07:16:29.716Z,1.60
2022-10-03T07:17:14.765Z,1.50
2022-10-03T07:17:39.048Z,1.77
2022-10-03T07:18:27.903Z,1.63
2022-10-03T07:19:24.103Z,1.60
2022-10-03T07:20:19.928Z,1.50
2022-10-03T07:20:56.178Z,1.52
2022-10-03T07:21:52.638Z,1.60
2022-10-03T07:22:42.713Z,1.50
2022-10-03T07:23:38.036Z,1.70
2022-10-03T07:24:03.352Z,1.88
2022-10-03T07:24:47.998Z,1.95
2022-10-03T07:25:28.016Z,1.77
2022-10-03T07:26:11.089Z,1.65
2022-10-03T07:26:54.161Z,1.70
2022-10-03T07:27:25.293Z,1.83
2022-10-03T07:28:28.635Z,1.58
2022-10-03T07:29:06.208Z,1.25
2022-10-03T07:29:30.755Z,1.40
2022-10-03T07:30:07.486Z,1.40
2022-10-03T07:30:52.560Z,1.20
2022-10-03T07:31:14.342Z,1.08
2022-10-03T07:31:36.212Z,1.40
2022-10-03T07:32:20.004Z,1.30
2022-10-03T07:33:06.258Z,1.30
2022-10-03T07:33:45.863Z,1.20
2022-10-03T07:34:54.848Z,1.30
2022-10-03T07:36:05.702Z,1.30
2022-10-03T07:37:07.624Z,1.30
2022-10-03T07:38:29.444Z,1.38
2022-10-03T07:39:00.142Z,1.17
2022-10-03T07:39:58.954Z,1.40
2022-10-03T07:40:52.113Z,1.10
2022-10-03T07:41:54.227Z,1.38
2022-10-03T07:42:49.195Z,1.20
2022-10-03T07:43:31.261Z,1.33
2022-10-03T07:44:31.001Z,1.38
2022-10-03T07:45:13.781Z,1.60
2022-10-03T07:45:41.784Z,1.20
2022-10-03T07:46:25.043Z,1.30
2022-10-03T07:47:00.979Z,1.40
2022-10-03T07:47:34.742Z,1.40
2022-10-03T07:47:57.784Z,1.50
2022-10-03T07:48:23.166Z,1.50
2022-10-03T07:49:03.977Z,1.48
2022-10-03T07:49:38.739Z,1.38
2022-10-03T07:50:37.712Z,1.60
2022-10-03T07:51:24.151Z,1.67
2022-10-03T07:52:03.842Z,1.50
2022-10-03T07:52:34.290Z,1.60
2022-10-03T07:53:31.231Z,1.60
2022-10-03T07:54:13.692Z,1.40
2022-10-03T07:54:47.223Z,1.70
2022-10-03T07:55:46.006Z,1.60
2022-10-03T07:56:35.849Z,1.63
2022-10-03T07:57:27.784Z,1.55
2022-10-03T07:58:18.025Z,1.60
2022-10-03T07:59:03.870Z,1.70
2022-10-03T07:59:56.318Z,1.50
2022-10-03T08:00:43.834Z,2.00
2022-10-03T08:01:12.401Z,1.80
2022-10-03T08:01:40.192Z,1.55
2022-10-03T08:02:40.418Z,1.60
2022-10-03T08:03:24.460Z,1.95
2022-10-03T08:04:04.696Z,1.77
2022-10-03T08:04:47.875Z,1.98
2022-10-03T08:05:39.636Z,1.70
2022-10-03T08:06:27.677Z,2.13
2022-10-03T08:07:22.931Z,1.80
2022-10-03T08:08:33.539Z,1.40
2022-10-03T08:09:17.488Z,2.08
2022-10-03T08:09:52.113Z,2.20
2022-10-03T08:10:32.450Z,1.90
2022-10-03T08:11:08.068Z,2.13
2022-10-03T08:12:06.556Z,2.08
2022-10-03T08:13:03.660Z,2.17
2022-10-03T08:13:52.787Z,3.25
2022-10-03T08:14:45.205Z,3.95
2022-10-03T08:15:25.598Z,3.08
2022-10-03T08:15:57.315Z,2.67
2022-10-03T08:16:43.471Z,2.85
2022-10-03T08:17:44.718Z,2.30
2022-10-03T08:18:24.976Z,2.17
2022-10-03T08:18:58.373Z,2.55
2022-10-03T08:19:53.265Z,2.47
2022-10-03T08:21:45.465Z,1.83
2022-10-03T08:22:07.414Z,1.92
2022-10-03T08:23:05.168Z,2.10
2022-10-03T08:23:48.127Z,1.85
2022-10-03T08:24:51.413Z,2.08
2022-10-03T08:25:37.322Z,1.60
2022-10-03T08:26:36.577Z,1.60
2022-10-03T08:27:15.920Z,1.95
2022-10-03T08:28:08.650Z,1.90
2022-10-03T08:28:57.391Z,1.80
2022-10-03T08:29:42.424Z,1.80
2022-10-03T08:30:20.743Z,1.85
2022-10-03T08:30:57.286Z,1.60
2022-10-03T08:31:48.404Z,1.70
2022-10-03T08:32:48.690Z,1.80
2022-10-03T08:33:53.709Z,1.73
2022-10-03T08:34:27.767Z,2.00
2022-10-03T08:35:04.278Z,2.00
2022-10-03T08:35:45.397Z,2.05
2022-10-03T08:36:34.370Z,2.05
2022-10-03T08:37:16.647Z,2.10
2022-10-03T08:38:09.797Z,1.98
2022-10-03T08:38:58.624Z,1.90
2022-10-03T08:39:41.828Z,1.75
2022-10-03T08:40:34.474Z,1.70
2022-10-03T08:41:05.393Z,2.20
2022-10-03T08:41:29.823Z,1.90
2022-10-03T08:42:28.505Z,2.20
2022-10-03T08:43:08.862Z,2.05
2022-10-03T08:44:12.224Z,2.13
2022-10-03T08:44:50.007Z,2.20
2022-10-03T08:45:31.019Z,2.10
2022-10-03T08:46:24.128Z,2.10
2022-10-03T08:47:07.051Z,1.88
2022-10-03T08:47:51.118Z,1.90
2022-10-03T08:48:44.668Z,2.15
2022-10-03T08:49:06.882Z,2.08
2022-10-03T08:49:41.045Z,2.05
2022-10-03T08:50:17.398Z,2.10
2022-10-03T08:50:56.669Z,2.00
2022-10-03T08:51:57.168Z,1.92
2022-10-03T08:52:46.512Z,1.98
2022-10-03T08:53:50.324Z,2.20
2022-10-03T08:54:28.028Z,2.15
2022-10-03T08:55:31.773Z,2.42
2022-10-03T08:56:22.865Z,13.48
2022-10-03T08:57:11.528Z,8.32
2022-10-03T08:58:09.863Z,3.10
2022-10-03T08:58:49.354Z,3.42
2022-10-03T08:59:58.452Z,2.38
2022-10-03T09:00:22.007Z,1.90
2022-10-03T09:01:01.620Z,2.10
2022-10-03T09:01:48.110Z,2.50
2022-10-03T09:03:20.178Z,5.15
2022-10-03T09:04:15.537Z,29.08
2022-10-03T09:05:02.764Z,162.63
2022-10-03T09:05:45.524Z,105.03
2022-10-03T09:06:58.588Z,120.05
2022-10-03T09:07:58.571Z,42.65
2022-10-03T09:08:56.252Z,62.67
2022-10-03T09:09:37.185Z,54.50
2022-10-03T09:10:27.489Z,34.03
2022-10-03T09:11:10.649Z,53.83
2022-10-03T09:11:38.485Z,36.25
2022-10-03T09:12:43.109Z,18.98
2022-10-03T09:13:24.582Z,14.38
2022-10-03T09:14:37.577Z,9.75
2022-10-03T09:15:09.210Z,4.82
2022-10-03T09:15:48.724Z,3.15
2022-10-03T09:16:25.519Z,2.65
2022-10-03T09:17:25.464Z,2.25
2022-10-03T09:18:10.162Z,1.95
2022-10-03T09:18:41.542Z,3.38
2022-10-03T09:19:22.372Z,1.70
2022-10-03T09:19:49.571Z,1.88
2022-10-03T09:20:49.710Z,2.10
2022-10-03T09:21:31.679Z,1.92
2022-10-03T09:21:56.770Z,2.30
2022-10-03T09:22:49.923Z,2.40
2022-10-03T09:23:42.302Z,2.30
2022-10-03T09:24:30.245Z,2.60
2022-10-03T09:25:16.337Z,2.75
2022-10-03T09:25:59.261Z,3.45
2022-10-03T09:26:55.979Z,4.22
2022-10-03T09:27:42.773Z,9.98
2022-10-03T09:28:25.468Z,16.48
2022-10-03T09:29:27.929Z,10.00
2022-10-03T09:30:10.678Z,3.20
2022-10-03T09:30:50.201Z,4.80
2022-10-03T09:52:35.095Z,8.15
2022-10-03T10:23:39.661Z,2.42
2022-10-03T10:24:19.796Z,5.75
2022-10-03T10:24:51.491Z,4.28
2022-10-03T10:25:50.203Z,4.85
2022-10-03T10:26:48.310Z,2.85
2022-10-03T10:27:32.045Z,2.35
2022-10-03T10:28:29.697Z,3.45
2022-10-03T10:29:14.566Z,4.63
2022-10-03T10:30:15.426Z,6.15
2022-10-03T10:31:10.165Z,4.93
2022-10-03T10:31:54.740Z,8.65
2022-10-03T10:32:52.819Z,8.05
2022-10-03T10:33:51.641Z,6.22
2022-10-03T10:35:09.136Z,5.55
2022-10-03T10:35:57.151Z,13.48
2022-10-03T10:36:43.476Z,22.98
2022-10-03T10:37:46.172Z,33.85
2022-10-03T10:38:46.069Z,64.38
2022-10-03T10:39:24.336Z,67.30
2022-10-03T10:40:08.035Z,34.58
2022-10-03T10:40:42.007Z,34.13
2022-10-03T10:41:21.405Z,7.60
2022-10-03T10:42:08.017Z,5.07
2022-10-03T10:43:12.555Z,33.17
2022-10-03T10:44:12.809Z,27.25
2022-10-03T10:44:58.213Z,4.55
2022-10-03T10:45:39.318Z,13.70
2022-10-03T10:46:32.779Z,18.08
2022-10-03T10:47:18.114Z,30.00